createdAt,value
2019-06-10T00:00:16.097Z,2.77
2019-06-10T00:02:45.917Z,2.10
2019-06-10T00:05:17.640Z,4.13
2019-06-10T00:07:51.482Z,7.27
2019-06-10T00:10:23.109Z,3.37
2019-06-10T00:12:55.497Z,5.37
2019-06-10T00:15:27.689Z,3.30
2019-06-10T00:18:23.104Z,3.47
2019-06-10T00:20:33.149Z,5.97
2019-06-10T00:23:05.652Z,4.07
2019-06-10T00:25:40.576Z,3.00
2019-06-10T00:28:12.342Z,5.77
2019-06-10T00:30:44.699Z,4.07
2019-06-10T00:33:16.485Z,8.63
2019-06-10T00:35:48.304Z,4.27
2019-06-10T00:38:21.402Z,7.07
2019-06-10T00:40:53.607Z,2.87
2019-06-10T00:43:25.580Z,4.13
2019-06-10T00:45:57.288Z,3.87
2019-06-10T00:48:30.112Z,9.90
2019-06-10T00:51:04.087Z,3.43
2019-06-10T00:53:35.802Z,5.03
2019-06-10T00:56:08.831Z,3.30
2019-06-10T00:58:40.937Z,3.23
2019-06-10T01:01:14.557Z,3.37
2019-06-10T01:03:46.189Z,4.60
2019-06-10T01:06:17.949Z,3.43
2019-06-10T01:08:51.245Z,2.40
2019-06-10T01:11:26.998Z,3.33
2019-06-10T01:13:56.777Z,4.53
2019-06-10T01:16:28.917Z,3.67
2019-06-10T01:19:03.953Z,3.20
2019-06-10T01:21:36.579Z,2.47
2019-06-10T01:24:11.595Z,5.20
2019-06-10T01:26:42.105Z,2.77
2019-06-10T01:29:15.451Z,2.43
2019-06-10T01:31:47.224Z,3.00
2019-06-10T01:34:18.985Z,2.87
2019-06-10T01:36:50.955Z,2.50
2019-06-10T01:39:23.015Z,1.83
2019-06-10T01:41:54.725Z,3.13
2019-06-10T01:44:26.470Z,2.63
2019-06-10T01:46:58.185Z,1.87
2019-06-10T01:49:30.765Z,1.80
2019-06-10T01:52:03.011Z,3.60
2019-06-10T01:54:34.757Z,2.23
2019-06-10T01:57:07.733Z,3.33
2019-06-10T01:59:41.416Z,2.50
2019-06-10T02:02:23.781Z,3.07
2019-06-10T02:04:55.701Z,2.37
2019-06-10T02:07:27.469Z,7.17
2019-06-10T02:10:01.130Z,1.70
2019-06-10T02:12:32.815Z,2.43
2019-06-10T02:15:05.101Z,2.37
2019-06-10T02:17:36.945Z,2.50
2019-06-10T02:20:12.946Z,2.53
2019-06-10T02:22:43.581Z,3.40
2019-06-10T02:25:16.691Z,3.70
2019-06-10T02:27:50.737Z,2.87
2019-06-10T02:30:35.756Z,3.33
2019-06-10T02:32:55.694Z,2.87
2019-06-10T02:35:43.020Z,3.03
2019-06-10T02:38:03.473Z,3.17
2019-06-10T02:40:36.548Z,3.77
2019-06-10T02:43:09.203Z,4.33
2019-06-10T02:45:44.212Z,1.77
2019-06-10T02:48:17.716Z,3.90
2019-06-10T02:51:08.235Z,3.00
2019-06-10T02:53:43.068Z,3.87
2019-06-10T02:56:14.901Z,2.00
2019-06-10T02:58:46.841Z,2.43
2019-06-10T03:01:19.952Z,2.37
2019-06-10T03:03:54.281Z,2.37
2019-06-10T03:06:34.851Z,3.57
2019-06-10T03:08:58.877Z,2.70
2019-06-10T03:11:36.475Z,4.10
2019-06-10T03:14:04.045Z,5.10
2019-06-10T03:16:46.299Z,7.90
2019-06-10T03:19:37.014Z,6.90
2019-06-10T03:22:04.701Z,4.80
2019-06-10T03:24:36.518Z,2.63
2019-06-10T03:27:08.191Z,5.13
2019-06-10T03:29:42.041Z,9.77
2019-06-10T03:32:15.250Z,7.10
2019-06-10T03:34:47.807Z,7.50
2019-06-10T03:37:20.960Z,9.20
2019-06-10T03:39:53.700Z,8.60
2019-06-10T03:42:26.889Z,4.37
2019-06-10T03:44:58.881Z,6.77
2019-06-10T03:47:32.471Z,5.07
2019-06-10T03:50:04.093Z,6.33
2019-06-10T03:52:35.893Z,5.07
2019-06-10T03:55:08.516Z,3.63
2019-06-10T03:57:42.277Z,3.33
2019-06-10T04:00:14.290Z,4.17
2019-06-10T04:02:46.313Z,2.73
2019-06-10T04:05:19.344Z,3.03
2019-06-10T04:07:52.692Z,3.40
2019-06-10T04:10:27.731Z,5.63
2019-06-10T04:12:57.873Z,4.07
2019-06-10T04:15:30.337Z,3.83
2019-06-10T04:18:03.874Z,5.70
2019-06-10T04:20:36.395Z,2.93
2019-06-10T04:23:08.151Z,3.07
2019-06-10T04:25:42.890Z,4.93
2019-06-10T04:28:14.649Z,3.77
2019-06-10T04:30:46.361Z,3.67
2019-06-10T04:33:18.384Z,2.87
2019-06-10T04:35:52.012Z,3.77
2019-06-10T04:38:26.031Z,3.30
2019-06-10T04:40:57.659Z,3.17
2019-06-10T04:43:29.457Z,3.57
2019-06-10T04:46:02.364Z,2.97
2019-06-10T04:48:34.903Z,5.40
2019-06-10T04:51:06.679Z,4.10
2019-06-10T04:53:40.303Z,6.13
2019-06-10T04:56:12.370Z,3.63
2019-06-10T04:58:44.587Z,4.53
2019-06-10T05:01:16.335Z,4.57
2019-06-10T05:03:48.181Z,4.37
2019-06-10T05:06:21.059Z,5.70
2019-06-10T05:08:53.778Z,3.37
2019-06-10T05:11:27.007Z,3.30
2019-06-10T05:13:59.187Z,3.63
2019-06-10T05:16:34.933Z,4.00
2019-06-10T05:19:04.283Z,4.53
2019-06-10T05:21:36.059Z,3.40
2019-06-10T05:24:07.826Z,3.47
2019-06-10T05:26:42.029Z,8.73
2019-06-10T05:29:12.969Z,5.33
2019-06-10T05:31:44.789Z,3.53
2019-06-10T05:34:16.539Z,4.33
2019-06-10T05:36:48.959Z,3.60
2019-06-10T05:39:21.497Z,3.43
2019-06-10T05:41:54.139Z,2.57
2019-06-10T05:44:28.446Z,4.93
2019-06-10T05:47:03.415Z,3.63
2019-06-10T05:49:36.126Z,3.70
2019-06-10T05:52:08.645Z,4.77
2019-06-10T05:54:42.718Z,3.37
2019-06-10T05:57:13.860Z,4.77
2019-06-10T05:59:45.644Z,3.93
2019-06-10T06:02:17.492Z,3.97
2019-06-10T06:04:49.253Z,3.57
2019-06-10T06:07:22.269Z,5.87
2019-06-10T06:09:54.096Z,4.83
2019-06-10T06:12:25.817Z,4.17
2019-06-10T06:14:57.500Z,7.03
2019-06-10T06:17:29.871Z,4.87
2019-06-10T06:20:02.746Z,5.03
2019-06-10T06:22:35.697Z,3.30
2019-06-10T06:25:08.655Z,4.60
2019-06-10T06:27:42.103Z,5.10
2019-06-10T06:30:18.710Z,10.77
2019-06-10T06:32:49.357Z,4.57
2019-06-10T06:35:22.727Z,6.83
2019-06-10T06:37:55.797Z,7.83
2019-06-10T06:40:27.531Z,4.83
2019-06-10T06:42:59.253Z,6.80
2019-06-10T06:45:34.371Z,5.97
2019-06-10T06:48:04.475Z,6.00
2019-06-10T06:50:46.254Z,7.35
2019-06-10T06:53:23.381Z,6.17
2019-06-10T06:55:44.359Z,6.42
2019-06-10T06:58:16.725Z,6.12
2019-06-10T07:01:01.408Z,6.90
2019-06-10T07:03:23.099Z,5.72
2019-06-10T07:05:56.165Z,5.58
2019-06-10T07:08:30.840Z,7.25
2019-06-10T07:11:04.996Z,7.78
2019-06-10T07:13:40.417Z,5.28
2019-06-10T07:16:13.131Z,7.15
2019-06-10T07:18:50.231Z,9.80
2019-06-10T07:21:22.567Z,5.85
2019-06-10T07:23:53.868Z,5.30
2019-06-10T07:26:26.226Z,6.58
2019-06-10T07:28:58.602Z,6.83
2019-06-10T07:31:33.580Z,7.22
2019-06-10T07:34:04.966Z,6.10
2019-06-10T07:36:37.307Z,7.45
2019-06-10T07:39:09.582Z,5.00
2019-06-10T07:41:45.165Z,8.55
2019-06-10T07:44:15.894Z,7.72
2019-06-10T07:46:48.238Z,7.78
2019-06-10T07:49:20.565Z,6.08
2019-06-10T07:51:52.896Z,7.53
2019-06-10T07:54:25.196Z,9.70
2019-06-10T07:56:57.516Z,8.10
2019-06-10T07:59:32.149Z,10.32
2019-06-10T08:02:03.834Z,8.98
2019-06-10T08:04:36.479Z,7.20
2019-06-10T08:07:12.389Z,7.92
2019-06-10T08:09:45.748Z,6.58
2019-06-10T08:12:18.420Z,8.98
2019-06-10T08:14:53.286Z,9.53
2019-06-10T08:17:24.724Z,8.20
2019-06-10T08:19:57.147Z,10.13
2019-06-10T08:22:33.167Z,6.97
2019-06-10T08:25:04.775Z,11.90
2019-06-10T08:27:38.549Z,7.17
2019-06-10T08:30:22.152Z,7.47
2019-06-10T08:32:53.051Z,7.12
2019-06-10T08:35:37.708Z,8.25
2019-06-10T08:37:54.968Z,7.42
2019-06-10T08:40:27.593Z,9.68
2019-06-10T08:42:59.922Z,7.25
2019-06-10T08:45:33.320Z,7.03
2019-06-10T08:48:06.653Z,11.40
2019-06-10T08:50:39.363Z,9.05
2019-06-10T08:53:15.515Z,10.82
2019-06-10T08:55:47.592Z,13.00
2019-06-10T08:58:19.618Z,11.40
2019-06-10T09:00:53.551Z,8.95
2019-06-10T09:03:25.816Z,6.25
2019-06-10T09:05:58.649Z,9.88
2019-06-10T09:08:32.599Z,9.78
2019-06-10T09:11:05.137Z,7.08
2019-06-10T09:13:38.120Z,7.47
2019-06-10T09:16:18.573Z,8.78
2019-06-10T09:18:48.019Z,8.90
2019-06-10T09:21:19.460Z,9.38
2019-06-10T09:23:59.375Z,8.40
2019-06-10T09:26:25.702Z,7.17
2019-06-10T09:28:57.983Z,9.23
2019-06-10T09:31:30.319Z,11.08
2019-06-10T09:34:03.981Z,9.03
2019-06-10T09:36:36.781Z,7.58
2019-06-10T09:39:09.272Z,12.03
2019-06-10T09:41:50.331Z,14.15
2019-06-10T09:44:15.680Z,12.47
2019-06-10T09:46:55.986Z,8.55
2019-06-10T09:49:27.597Z,11.45
2019-06-10T09:52:03.479Z,10.78
2019-06-10T09:54:35.474Z,8.18
2019-06-10T09:57:07.826Z,9.90
2019-06-10T09:59:41.722Z,8.18
2019-06-10T10:02:14.072Z,8.68
2019-06-10T10:04:49.468Z,14.00
2019-06-10T10:07:22.624Z,12.70
2019-06-10T10:10:05.060Z,11.83
2019-06-10T10:12:36.167Z,13.30
2019-06-10T10:15:26.430Z,11.22
2019-06-10T10:17:47.654Z,10.50
2019-06-10T10:20:18.407Z,8.95
2019-06-10T10:22:54.209Z,8.75
2019-06-10T10:25:32.654Z,15.05
2019-06-10T10:28:03.988Z,10.63
2019-06-10T10:30:57.602Z,10.30
2019-06-10T10:33:30.273Z,9.78
2019-06-10T10:36:02.974Z,10.88
2019-06-10T10:38:42.641Z,12.55
2019-06-10T10:41:15.202Z,9.20
2019-06-10T10:43:51.183Z,10.10
2019-06-10T10:46:23.102Z,12.35
2019-06-10T10:48:56.640Z,8.70
2019-06-10T10:51:29.412Z,9.20
2019-06-10T10:54:21.154Z,10.05
2019-06-10T10:56:35.759Z,10.35
2019-06-10T10:59:08.182Z,9.60
2019-06-10T11:01:43.740Z,10.32
2019-06-10T11:04:14.699Z,11.97
2019-06-10T11:06:47.812Z,11.03
2019-06-10T11:09:26.201Z,11.35
2019-06-10T11:12:02.711Z,13.45
2019-06-10T11:14:35.327Z,12.15
2019-06-10T11:17:08.094Z,11.10
2019-06-10T11:19:40.669Z,9.00
2019-06-10T11:22:13.015Z,10.60
2019-06-10T11:24:47.627Z,9.70
2019-06-10T11:27:19.387Z,10.00
2019-06-10T11:29:53.612Z,9.08
2019-06-10T11:32:27.140Z,10.05
2019-06-10T11:34:59.570Z,11.08
2019-06-10T11:37:33.068Z,8.80
2019-06-10T11:40:06.831Z,11.20
2019-06-10T11:42:43.340Z,11.20
2019-06-10T11:45:15.334Z,11.03
2019-06-10T11:47:49.321Z,10.43
2019-06-10T11:50:23.230Z,14.43
2019-06-10T11:53:00.254Z,12.35
2019-06-10T11:55:29.759Z,10.68
2019-06-10T11:58:02.191Z,10.88
2019-06-10T12:00:35.337Z,10.60
2019-06-10T12:03:07.772Z,10.68
2019-06-10T12:05:40.112Z,10.10
2019-06-10T12:08:16.033Z,11.20
2019-06-10T12:10:49.049Z,10.15
2019-06-10T12:13:22.615Z,13.20
2019-06-10T12:16:42.365Z,14.03
2019-06-10T12:18:29.331Z,13.18
2019-06-10T12:21:03.867Z,14.18
2019-06-10T12:23:37.893Z,10.65
2019-06-10T12:26:10.182Z,9.80
2019-06-10T12:28:43.218Z,12.65
2019-06-10T12:31:17.983Z,9.73
2019-06-10T12:33:51.135Z,9.68
2019-06-10T12:36:24.474Z,10.15
2019-06-10T12:39:02.339Z,8.63
2019-06-10T12:41:33.186Z,13.28
2019-06-10T12:44:07.473Z,9.50
2019-06-10T12:46:39.819Z,11.68
2019-06-10T12:49:13.108Z,9.78
2019-06-10T12:51:46.157Z,9.53
2019-06-10T12:54:18.597Z,9.45
2019-06-10T12:56:52.812Z,11.68
2019-06-10T12:59:24.957Z,10.05
2019-06-10T13:01:58.094Z,8.40
2019-06-10T13:04:31.433Z,8.80
2019-06-10T13:07:07.076Z,12.07
2019-06-10T13:09:40.002Z,9.85
2019-06-10T13:12:13.100Z,10.90
2019-06-10T13:14:45.863Z,9.18
2019-06-10T13:17:18.258Z,12.43
2019-06-10T13:19:50.708Z,11.88
2019-06-10T13:22:23.151Z,9.73
2019-06-10T13:24:56.484Z,10.65
2019-06-10T13:27:29.311Z,9.30
2019-06-10T13:30:02.687Z,10.20
2019-06-10T13:32:36.719Z,10.80
2019-06-10T13:35:09.144Z,9.10
2019-06-10T13:37:42.864Z,9.03
2019-06-10T13:40:16.337Z,13.38
2019-06-10T13:42:48.629Z,10.23
2019-06-10T13:45:22.383Z,12.80
2019-06-10T13:47:55.185Z,11.38
2019-06-10T13:50:27.553Z,12.55
2019-06-10T13:53:01.124Z,12.73
2019-06-10T13:55:33.785Z,11.53
2019-06-10T13:58:08.373Z,15.40
2019-06-10T14:00:45.971Z,12.98
2019-06-10T14:03:16.322Z,12.58
2019-06-10T14:05:48.989Z,9.33
2019-06-10T14:08:23.324Z,8.48
2019-06-10T14:10:55.224Z,8.65
2019-06-10T14:13:28.632Z,13.32
2019-06-10T14:16:01.377Z,10.00
2019-06-10T14:18:36.620Z,7.95
2019-06-10T14:21:12.624Z,9.13
2019-06-10T14:23:42.945Z,9.68
2019-06-10T14:26:17.158Z,9.15
2019-06-10T14:28:52.436Z,9.38
2019-06-10T14:31:39.419Z,11.08
2019-06-10T14:34:00.035Z,8.83
2019-06-10T14:36:32.552Z,10.30
2019-06-10T14:39:08.548Z,8.87
2019-06-10T14:41:42.887Z,8.87
2019-06-10T14:44:18.078Z,7.97
2019-06-10T14:46:52.908Z,8.53
2019-06-10T14:49:24.534Z,8.03
2019-06-10T14:51:56.708Z,9.17
2019-06-10T14:54:28.688Z,8.03
2019-06-10T14:57:02.703Z,9.95
2019-06-10T14:59:34.790Z,10.90
2019-06-10T15:02:07.794Z,10.90
2019-06-10T15:04:42.438Z,12.88
2019-06-10T15:07:13.824Z,9.87
2019-06-10T15:09:45.946Z,17.30
2019-06-10T15:12:18.401Z,11.95
2019-06-10T15:14:52.107Z,9.00
2019-06-10T15:17:24.628Z,10.38
2019-06-10T15:19:56.946Z,11.53
2019-06-10T15:22:29.820Z,12.13
2019-06-10T15:25:25.460Z,9.90
2019-06-10T15:27:54.941Z,8.33
2019-06-10T15:30:30.595Z,12.58
2019-06-10T15:33:02.929Z,10.23
2019-06-10T15:35:34.672Z,9.43
2019-06-10T15:38:06.825Z,13.60
2019-06-10T15:40:38.867Z,8.70
2019-06-10T15:43:11.790Z,11.22
2019-06-10T15:45:44.356Z,10.32
2019-06-10T15:48:21.881Z,9.07
2019-06-10T15:50:52.643Z,8.97
2019-06-10T15:53:25.718Z,11.37
2019-06-10T15:56:24.998Z,12.03
2019-06-10T15:58:32.126Z,9.17
2019-06-10T16:01:04.644Z,10.17
2019-06-10T16:03:36.709Z,8.73
2019-06-10T16:06:08.789Z,8.47
2019-06-10T16:08:43.006Z,10.40
2019-06-10T16:11:18.046Z,9.57
2019-06-10T16:13:48.280Z,8.80
2019-06-10T16:16:21.063Z,8.87
2019-06-10T16:18:53.552Z,9.00
2019-06-10T16:21:25.642Z,9.27
2019-06-10T16:23:57.667Z,9.57
2019-06-10T16:26:29.727Z,9.70
2019-06-10T16:29:05.745Z,9.97
2019-06-10T16:31:38.185Z,9.20
2019-06-10T16:34:12.591Z,8.13
2019-06-10T16:36:44.000Z,9.50
2019-06-10T16:39:16.970Z,8.93
2019-06-10T16:41:49.256Z,10.20
2019-06-10T16:44:25.994Z,8.70
2019-06-10T16:46:55.107Z,8.57
2019-06-10T16:49:27.189Z,10.83
2019-06-10T16:52:02.813Z,9.20
2019-06-10T16:54:45.983Z,9.53
2019-06-10T16:57:18.026Z,8.53
2019-06-10T16:59:52.095Z,10.53
2019-06-10T17:02:25.459Z,9.73
2019-06-10T17:04:58.693Z,9.70
2019-06-10T17:07:32.907Z,10.03
2019-06-10T17:10:06.535Z,8.73
2019-06-10T17:12:38.680Z,14.73
2019-06-10T17:15:13.014Z,8.17
2019-06-10T17:17:45.527Z,11.63
2019-06-10T17:20:18.591Z,15.03
2019-06-10T17:22:52.445Z,10.97
2019-06-10T17:25:25.440Z,13.07
2019-06-10T17:27:58.343Z,9.57
2019-06-10T17:30:30.356Z,9.67
2019-06-10T17:33:02.449Z,18.43
2019-06-10T17:35:36.909Z,16.67
2019-06-10T17:38:09.490Z,10.23
2019-06-10T17:40:43.216Z,13.83
2019-06-10T17:43:15.304Z,10.63
2019-06-10T17:45:47.684Z,12.30
2019-06-10T17:48:22.298Z,9.35
2019-06-10T17:50:54.079Z,10.70
2019-06-10T17:53:38.270Z,15.18
2019-06-10T17:56:13.170Z,10.30
2019-06-10T17:58:54.252Z,11.15
2019-06-10T18:01:18.561Z,10.75
2019-06-10T18:03:52.919Z,12.78
2019-06-10T18:06:25.954Z,12.23
2019-06-10T18:08:59.030Z,10.72
2019-06-10T18:11:34.179Z,13.22
2019-06-10T18:14:05.998Z,14.93
2019-06-10T18:16:38.377Z,14.43
2019-06-10T18:19:10.702Z,11.40
2019-06-10T18:21:43.116Z,10.58
2019-06-10T18:24:15.517Z,11.18
2019-06-10T18:26:49.210Z,12.15
2019-06-10T18:29:22.970Z,11.15
2019-06-10T18:31:55.676Z,14.87
2019-06-10T18:34:28.078Z,15.20
2019-06-10T18:37:02.621Z,12.82
2019-06-10T18:39:35.652Z,14.55
2019-06-10T18:42:09.541Z,11.20
2019-06-10T18:44:41.982Z,11.80
2019-06-10T18:47:14.410Z,12.00
2019-06-10T18:49:46.850Z,12.70
2019-06-10T18:52:23.431Z,15.68
2019-06-10T18:54:57.600Z,14.28
2019-06-10T18:57:30.637Z,15.20
2019-06-10T19:00:11.154Z,13.10
2019-06-10T19:02:39.274Z,23.83
2019-06-10T19:05:13.070Z,16.20
2019-06-10T19:07:46.874Z,13.80
2019-06-10T19:10:23.065Z,17.30
2019-06-10T19:12:55.703Z,16.00
2019-06-10T19:15:29.332Z,16.57
2019-06-10T19:18:03.147Z,16.32
2019-06-10T19:20:38.705Z,12.45
2019-06-10T19:23:09.945Z,16.73
2019-06-10T19:25:44.414Z,15.23
2019-06-10T19:28:16.364Z,14.00
2019-06-10T19:30:53.289Z,20.75
2019-06-10T19:33:25.026Z,15.48
2019-06-10T19:35:57.380Z,12.88
2019-06-10T19:38:32.447Z,15.88
2019-06-10T19:41:18.718Z,15.68
2019-06-10T19:43:52.966Z,17.00
2019-06-10T19:46:25.214Z,14.03
2019-06-10T19:49:02.859Z,14.63
2019-06-10T19:51:32.872Z,14.75
2019-06-10T19:54:07.664Z,16.25
2019-06-10T19:56:41.883Z,16.87
2019-06-10T19:59:14.320Z,12.65
2019-06-10T20:01:48.836Z,14.13
2019-06-10T20:04:22.626Z,16.07
2019-06-10T20:06:57.142Z,14.85
2019-06-10T20:09:32.764Z,17.00
2019-06-10T20:12:05.430Z,12.05
2019-06-10T20:14:43.216Z,13.58
2019-06-10T20:17:15.964Z,15.32
2019-06-10T20:19:48.426Z,15.53
2019-06-10T20:22:22.777Z,16.82
2019-06-10T20:24:55.208Z,14.20
2019-06-10T20:27:27.601Z,20.08
2019-06-10T20:30:10.076Z,11.75
2019-06-10T20:32:37.060Z,13.25
2019-06-10T20:35:12.439Z,11.95
2019-06-10T20:37:47.235Z,16.10
2019-06-10T20:40:20.167Z,12.58
2019-06-10T20:42:53.971Z,14.75
2019-06-10T20:45:26.813Z,15.00
2019-06-10T20:47:59.306Z,13.65
2019-06-10T20:50:32.476Z,14.65
2019-06-10T20:53:14.343Z,17.17
2019-06-10T20:55:49.468Z,16.70
2019-06-10T20:58:22.544Z,19.05
2019-06-10T21:00:57.710Z,18.00
2019-06-10T21:03:32.367Z,14.13
2019-06-10T21:06:04.794Z,19.20
2019-06-10T21:08:37.412Z,16.70
2019-06-10T21:11:09.720Z,18.65
2019-06-10T21:13:48.685Z,15.18
2019-06-10T21:16:18.355Z,17.15
2019-06-10T21:18:55.146Z,15.25
2019-06-10T21:21:24.758Z,20.43
2019-06-10T21:23:57.185Z,16.10
2019-06-10T21:26:32.450Z,14.90
2019-06-10T21:29:05.222Z,15.80
2019-06-10T21:31:37.628Z,16.75
2019-06-10T21:34:12.196Z,15.95
2019-06-10T21:36:43.836Z,16.23
2019-06-10T21:39:27.718Z,17.90
2019-06-10T21:42:02.073Z,15.68
2019-06-10T21:44:34.115Z,15.68
2019-06-10T21:47:06.523Z,19.20
2019-06-10T21:49:38.829Z,14.07
2019-06-10T21:52:12.963Z,13.83
2019-06-10T21:54:47.189Z,18.20
2019-06-10T21:57:21.970Z,15.80
2019-06-10T21:59:55.286Z,16.95
2019-06-10T22:02:27.801Z,17.95
2019-06-10T22:05:03.321Z,17.48
2019-06-10T22:07:35.547Z,20.00
2019-06-10T22:10:08.244Z,13.32
2019-06-10T22:12:42.123Z,16.45
2019-06-10T22:15:15.239Z,15.03
2019-06-10T22:17:48.316Z,15.25
2019-06-10T22:20:22.739Z,19.75
2019-06-10T22:22:56.368Z,14.95
2019-06-10T22:25:29.238Z,15.35
2019-06-10T22:28:02.730Z,14.35
2019-06-10T22:30:35.633Z,13.90
2019-06-10T22:33:08.050Z,14.95
2019-06-10T22:35:42.539Z,12.35
2019-06-10T22:38:15.189Z,15.65
2019-06-10T22:40:50.949Z,16.90
2019-06-10T22:43:23.955Z,13.50
2019-06-10T22:45:57.305Z,14.23
2019-06-10T22:48:33.378Z,11.93
2019-06-10T22:51:06.007Z,15.58
2019-06-10T22:53:38.411Z,12.37
2019-06-10T22:56:12.355Z,16.65
2019-06-10T22:58:44.989Z,15.38
2019-06-10T23:01:30.887Z,11.55
2019-06-10T23:03:52.144Z,14.07
2019-06-10T23:06:24.914Z,13.65
2019-06-10T23:08:58.096Z,13.38
2019-06-10T23:11:32.335Z,12.20
2019-06-10T23:14:05.090Z,10.70
2019-06-10T23:16:37.442Z,15.18
2019-06-10T23:19:09.774Z,11.18
2019-06-10T23:21:42.535Z,14.70
2019-06-10T23:24:14.867Z,11.97
2019-06-10T23:26:47.210Z,12.60
2019-06-10T23:29:19.824Z,11.28
2019-06-10T23:32:00.751Z,12.88
2019-06-10T23:34:27.287Z,16.52
2019-06-10T23:37:01.673Z,12.88
2019-06-10T23:39:34.424Z,11.55
2019-06-10T23:42:06.864Z,14.15
2019-06-10T23:44:39.322Z,14.38
2019-06-10T23:47:12.750Z,13.70
2019-06-10T23:49:45.323Z,13.13
2019-06-10T23:52:17.665Z,15.03
2019-06-10T23:54:50.082Z,13.10
2019-06-10T23:57:22.436Z,16.50
2019-06-10T23:59:55.628Z,13.03
